Huvudsida
METAR-TAF:

METAR-TAF

Flygplatser :

Koror, Babeldaob, Palau

latitud: 07-22N, longitud: 134-32E, höjd: 54 m

Aktuellt väderrapport

Denna rapport gjordes för 15 minuter sedan, klockan 17:54 UTC
Vind 7 kt från ost
Temperatur 27°C
Fuktighet 79%
Tryck 1009 hPa
Sikt: 22.5 km
Spridda moln på en höjd av 1600 ft
Brutna moln på en höjd av 30000 ft

METAR: PTRO 191754Z 08007KT 14SM SCT016 BKN300 27/23 A2980

Tid: 03:09 (18:09 UTC)

Väderprognos

Denna rapport gjordes för 49 minuter sedan, klockan 17:20 UTC
Prognos gäller från 19 kl. 18 UTC till 20 kl. 18 UTC
Vind 9 kt från ost
Sikt: 10 km
Få moln på en höjd av 1600 ft
Spridda moln på en höjd av 12000 ft
Från 19 kl. 2300 UTC
Vind 10 kt från ost/nordost i byarna ända upp till 16 kt
Sikt: 10 km
Få moln på en höjd av 1800 ft
Spridda moln på en höjd av 5000 ft

TAF: PTRO 191720Z 1918/2018 08009KT P6SM FEW016 SCT120 FM192300 06010G16KT P6SM FEW018 SCT050

Aktuella väderrapporter och prognoser från 4000 flygplatser (METAR- och TAF-rapporter).

De tillgängliga stationerna syns som gula och röda prickar på kartan.

För musen över prickarna för att se namnen på stationerna.

Klicka sedan för att få väderrapporter och prognoser.

För att ändra kartan: Klicka på de gröna knapparna med ett svart kors på för att zooma in; den gröna knappen med ett streck på för att zooma ut; eller på de gröna pilarna för angränsande kartor.


METAR-TAF: